Daziazet -1 — 5TTDB — position and weather

sailwx.info

Track history (hours):
 
Tides and Currents Weather Stations Pressure Air Temp Water Temp Dewpoint Dewpoint Depression Visibility Wind Speed Wind Dir Waves Ship Positions

Daziazet -1

Last reported at 2018-Mar-29 14:05 UTC. Time now 2018-Jun-19 12:46 UTC.
Position N 27°53' W 015°20'.
Warning: this ship's position is months out of date.

MMSI: 652997224.

Date/timePositionNaut miles runAvg speedWind from/ knotsBaromVisibWave heightAir tempDewpointWater temp
2018-Mar-29 14:05N 27°53' W 015°20'1 8.7
2018-Mar-29 14:00N 27°54' W 015°20'4 8.2
2018-Mar-29 13:27N 27°59' W 015°20'4 8.0
2018-Mar-29 13:00N 28°02' W 015°21'4 7.7
2018-Mar-29 12:30N 28°06' W 015°23'3 6.9
2018-Mar-29 12:00N 28°08' W 015°25'0 0.9
2018-Mar-29 11:31N 28°09' W 015°25'0 0.0
2018-Mar-29 11:01N 28°09' W 015°25'0 0.0
2018-Mar-29 10:31N 28°09' W 015°25'0 0.0
2018-Mar-29 10:00N 28°09' W 015°25'0 0.0
2018-Mar-29 09:30N 28°09' W 015°25'0 0.0
2018-Mar-29 09:00N 28°09' W 015°25'0 0.0
2018-Mar-29 08:30N 28°09' W 015°25'0 0.0
2018-Mar-29 08:00N 28°09' W 015°25'0 0.0
2018-Mar-29 07:30N 28°09' W 015°25'0 0.0
2018-Mar-29 06:59N 28°09' W 015°25'0 0.0
2018-Mar-29 06:30N 28°09' W 015°25'0 0.0
2018-Mar-29 06:00N 28°09' W 015°25'0 0.0
2018-Mar-29 05:30N 28°09' W 015°25'0 0.0
2018-Mar-29 05:00N 28°09' W 015°25'0 0.0
2018-Mar-29 04:30N 28°09' W 015°25'0 0.0
2018-Mar-29 04:00N 28°09' W 015°25'0 0.0
2018-Mar-29 03:30N 28°09' W 015°25'0 0.0
2018-Mar-29 02:59N 28°09' W 015°25'0 0.0
2018-Mar-29 02:30N 28°09' W 015°25'0 0.0
2018-Mar-29 02:00N 28°09' W 015°25'0 0.0
2018-Mar-29 01:30N 28°09' W 015°25'0 0.0
2018-Mar-29 01:01N 28°09' W 015°25'0 0.0
2018-Mar-29 00:30N 28°09' W 015°25'0 0.0
2018-Mar-29 00:01N 28°09' W 015°25'0 0.0
2018-Mar-28 23:30N 28°09' W 015°25'0 0.0
2018-Mar-28 23:00N 28°09' W 015°25'0 0.0
2018-Mar-28 22:30N 28°09' W 015°25'0 0.0
2018-Mar-28 22:00N 28°09' W 015°25'0 0.0
2018-Mar-28 21:30N 28°09' W 015°25'0 0.0
2018-Mar-28 21:00N 28°09' W 015°25'0 0.0
2018-Mar-28 20:27N 28°09' W 015°25'0 0.0
2018-Mar-28 20:00N 28°09' W 015°25'0 0.0
2018-Mar-28 19:29N 28°09' W 015°25'0 0.0
2018-Mar-28 19:01N 28°09' W 015°25'2 3.4
2018-Mar-28 18:30N 28°07' W 015°25'1 1.6
2018-Mar-28 18:00N 28°07' W 015°24'2 4.1
2018-Mar-28 17:30N 28°09' W 015°25'0 0.2
2018-Mar-28 17:00N 28°09' W 015°25'0 0.1
2018-Mar-28 16:29N 28°09' W 015°25'0 0.0
2018-Mar-28 15:59N 28°09' W 015°25'0 0.1
2018-Mar-28 15:30N 28°09' W 015°25'0 0.0
2018-Mar-28 15:00N 28°09' W 015°25'0 0.0
2018-Mar-28 14:30N 28°09' W 015°25'0 0.0
2018-Mar-28 13:59N 28°09' W 015°25'0 0.0
2018-Mar-28 13:30N 28°09' W 015°25'0 0.0
2018-Mar-28 13:00N 28°09' W 015°25'0 0.0
2018-Mar-28 12:30N 28°09' W 015°25'0 0.0
2018-Mar-28 12:00N 28°09' W 015°25'0 0.0
2018-Mar-28 11:29N 28°09' W 015°25'0 0.0
2018-Mar-28 11:00N 28°09' W 015°25'0 0.0
2018-Mar-28 10:30N 28°09' W 015°25'0 0.0
2018-Mar-28 10:00N 28°09' W 015°25'0 0.0
2018-Mar-28 09:30N 28°09' W 015°25'0 0.0
2018-Mar-28 09:00N 28°09' W 015°25'0 0.0
2018-Mar-28 08:30N 28°09' W 015°25'0 0.0
2018-Mar-28 07:57N 28°09' W 015°25'0 0.0
2018-Mar-28 07:30N 28°09' W 015°25'0 0.0
2018-Mar-28 07:00N 28°09' W 015°25'0 0.0
2018-Mar-28 06:30N 28°09' W 015°25'0 0.0
2018-Mar-28 06:00N 28°09' W 015°25'0 0.0
2018-Mar-28 05:30N 28°09' W 015°25'0 0.0
2018-Mar-28 05:00N 28°09' W 015°25'0 0.0
2018-Mar-28 04:30N 28°09' W 015°25'0 0.0
2018-Mar-28 04:00N 28°09' W 015°25'0 0.0
2018-Mar-28 03:30N 28°09' W 015°25'0 0.0
2018-Mar-28 03:00N 28°09' W 015°25'0 0.0
2018-Mar-28 02:30N 28°09' W 015°25'0 0.0
2018-Mar-28 02:00N 28°09' W 015°25'0 0.0
2018-Mar-28 01:29N 28°09' W 015°25'0 0.0
2018-Mar-28 01:00N 28°09' W 015°25'0 0.0
2018-Mar-28 00:30N 28°09' W 015°25'0 0.0
2018-Mar-28 00:00N 28°09' W 015°25'0 0.0
2018-Mar-27 23:30N 28°09' W 015°25'0 0.0
2018-Mar-27 23:00N 28°09' W 015°25'0 0.0
2018-Mar-27 22:30N 28°09' W 015°25'0 0.0
2018-Mar-27 22:00N 28°09' W 015°25'0 0.0
2018-Mar-27 21:30N 28°09' W 015°25'0 0.0
2018-Mar-27 21:00N 28°09' W 015°25'0 0.0
2018-Mar-27 20:30N 28°09' W 015°25'0 0.0
2018-Mar-27 20:00N 28°09' W 015°25'0 0.0
2018-Mar-27 19:28N 28°09' W 015°25'0 0.0
2018-Mar-27 19:00N 28°09' W 015°25'0 0.0
2018-Mar-27 18:27N 28°09' W 015°25'0 0.0
2018-Mar-27 18:00N 28°09' W 015°25'0 0.0
2018-Mar-27 17:30N 28°09' W 015°25'0 0.0
2018-Mar-27 17:00N 28°09' W 015°25'0 0.0
2018-Mar-27 16:28N 28°09' W 015°25'0 0.0
2018-Mar-27 16:00N 28°09' W 015°25'0 0.0
2018-Mar-27 15:30N 28°09' W 015°25'0 0.0
2018-Mar-27 15:00N 28°09' W 015°25'0 0.0
2018-Mar-27 14:30N 28°09' W 015°25'0 0.0
2018-Mar-27 14:00N 28°09' W 015°25'0 0.0
2018-Mar-27 13:30N 28°09' W 015°25'0 0.0
2018-Mar-27 13:00N 28°09' W 015°25'0 0.0
2018-Mar-27 12:30N 28°09' W 015°25'0 0.0
2018-Mar-27 12:00N 28°09' W 015°25'0 0.0
2018-Mar-27 11:30N 28°09' W 015°25'0 0.0
2018-Mar-27 11:00N 28°09' W 015°25'0 0.0
2018-Mar-27 10:30N 28°09' W 015°25'0 0.0
2018-Mar-27 10:00N 28°09' W 015°25'0 0.0
2018-Mar-27 09:30N 28°09' W 015°25'0 0.0
2018-Mar-27 09:00N 28°09' W 015°25'0 0.0
2018-Mar-27 08:30N 28°09' W 015°25'0 0.0
2018-Mar-27 08:00N 28°09' W 015°25'0 0.0
2018-Mar-27 07:28N 28°09' W 015°25'0 0.0
2018-Mar-27 07:00N 28°09' W 015°25'0 0.0
2018-Mar-27 06:30N 28°09' W 015°25'0 0.0
2018-Mar-27 06:01N 28°09' W 015°25'0 0.0
2018-Mar-27 05:30N 28°09' W 015°25'0 0.0
2018-Mar-27 05:00N 28°09' W 015°25'0 0.0
2018-Mar-27 04:30N 28°09' W 015°25'0 0.0
2018-Mar-27 04:00N 28°09' W 015°25'0 0.0
2018-Mar-27 03:30N 28°09' W 015°25'0 0.0
2018-Mar-27 03:00N 28°09' W 015°25'0 0.0
2018-Mar-27 02:30N 28°09' W 015°25'0 0.0
2018-Mar-27 02:00N 28°09' W 015°25'0 0.0
2018-Mar-27 01:30N 28°09' W 015°25'0 0.0
2018-Mar-27 01:00N 28°09' W 015°25'0 0.0
2018-Mar-27 00:26N 28°09' W 015°25'0 0.0
2018-Mar-27 00:00N 28°09' W 015°25'0 0.0
2018-Mar-26 23:30N 28°09' W 015°25'0 0.0
2018-Mar-26 23:00N 28°09' W 015°25'0 0.0
2018-Mar-26 22:30N 28°09' W 015°25'0 0.0
2018-Mar-26 22:00N 28°09' W 015°25'0 0.0
2018-Mar-26 21:29N 28°09' W 015°25'0 0.0
2018-Mar-26 21:00N 28°09' W 015°25'0 0.0
2018-Mar-26 20:30N 28°09' W 015°25'0 0.0
2018-Mar-26 20:00N 28°09' W 015°25'0 0.0
2018-Mar-26 19:30N 28°09' W 015°25'0 0.0
2018-Mar-26 19:00N 28°09' W 015°25'0 0.0
2018-Mar-26 18:30N 28°09' W 015°25'0 0.0
2018-Mar-26 18:00N 28°09' W 015°25'0 0.0
2018-Mar-26 17:30N 28°09' W 015°25'0 0.0
2018-Mar-26 17:00N 28°09' W 015°25'0 0.0
2018-Mar-26 16:30N 28°09' W 015°25'0 0.0
2018-Mar-26 15:54N 28°09' W 015°25'0 0.0
2018-Mar-26 15:30N 28°09' W 015°25'0 0.0
2018-Mar-26 15:00N 28°09' W 015°25'0 0.0
2018-Mar-26 14:30N 28°09' W 015°25'0 0.0
2018-Mar-26 14:00N 28°09' W 015°25'0 0.0
2018-Mar-26 13:30N 28°09' W 015°25'0 0.0
2018-Mar-26 13:00N 28°09' W 015°25'0 0.0
2018-Mar-26 12:29N 28°09' W 015°25'0 0.0
2018-Mar-26 12:00N 28°09' W 015°25'0 0.0
2018-Mar-26 11:30N 28°09' W 015°25'0 0.0
2018-Mar-26 11:00N 28°09' W 015°25'0 0.0
2018-Mar-26 10:30N 28°09' W 015°25'0 0.0
2018-Mar-26 10:00N 28°09' W 015°25'0 0.0
2018-Mar-26 09:30N 28°09' W 015°25'0 0.0
2018-Mar-26 09:00N 28°09' W 015°25'0 0.0
2018-Mar-26 08:29N 28°09' W 015°25'0 0.0
2018-Mar-26 08:00N 28°09' W 015°25'0 0.0
2018-Mar-26 07:28N 28°09' W 015°25'0 0.0
2018-Mar-26 07:00N 28°09' W 015°25'0 0.0
2018-Mar-26 06:30N 28°09' W 015°25'0 0.0
2018-Mar-26 06:00N 28°09' W 015°25'0 0.0
2018-Mar-26 05:30N 28°09' W 015°25'0 0.0
2018-Mar-26 05:00N 28°09' W 015°25'0 0.0
2018-Mar-26 04:30N 28°09' W 015°25'0 0.0
2018-Mar-26 04:00N 28°09' W 015°25'0 0.0
2018-Mar-26 03:30N 28°09' W 015°25'0 0.0
2018-Mar-26 03:01N 28°09' W 015°25'0 0.0
2018-Mar-26 02:30N 28°09' W 015°25'0 0.0
2018-Mar-26 02:00N 28°09' W 015°25'0 0.0
2018-Mar-26 01:30N 28°09' W 015°25'0 0.0
2018-Mar-26 01:00N 28°09' W 015°25'0 0.0
2018-Mar-26 00:31N 28°09' W 015°25'0 0.0
2018-Mar-26 00:00N 28°09' W 015°25'0 0.0
2018-Mar-25 23:31N 28°09' W 015°25'0 0.0
2018-Mar-25 23:01N 28°09' W 015°25'0 0.0
2018-Mar-25 22:31N 28°09' W 015°25'0 0.0
2018-Mar-25 22:00N 28°09' W 015°25'0 0.0
2018-Mar-25 21:30N 28°09' W 015°25'0 0.0
2018-Mar-25 21:00N 28°09' W 015°25'0 0.0
2018-Mar-25 20:30N 28°09' W 015°25'0 0.0
2018-Mar-25 20:00N 28°09' W 015°25'0 0.0
2018-Mar-25 19:30N 28°09' W 015°25'0 0.0
2018-Mar-25 19:00N 28°09' W 015°25'0 0.0
2018-Mar-25 18:30N 28°09' W 015°25'0 0.0
2018-Mar-25 18:00N 28°09' W 015°25'0 0.0
2018-Mar-25 17:28N 28°09' W 015°25'0 0.0
2018-Mar-25 17:00N 28°09' W 015°25'0 0.0
2018-Mar-25 16:28N 28°09' W 015°25'0 0.0
2018-Mar-25 16:00N 28°09' W 015°25'0 0.0
2018-Mar-25 15:30N 28°09' W 015°25'0 0.0
2018-Mar-25 15:00N 28°09' W 015°25'0 0.0
2018-Mar-25 14:30N 28°09' W 015°25'0 0.0
2018-Mar-25 13:58N 28°09' W 015°25'0 0.0
2018-Mar-25 13:30N 28°09' W 015°25'0 0.0
2018-Mar-25 13:00N 28°09' W 015°25'0 0.0
2018-Mar-25 12:30N 28°09' W 015°25'0 0.0
2018-Mar-25 12:00N 28°09' W 015°25'0 0.0
2018-Mar-25 11:30N 28°09' W 015°25'0 0.0
2018-Mar-25 10:59N 28°09' W 015°25'0 0.0
2018-Mar-25 10:30N 28°09' W 015°25'0 0.0
2018-Mar-25 10:00N 28°09' W 015°25'0 0.0
2018-Mar-25 09:30N 28°09' W 015°25'0 0.0
2018-Mar-25 09:00N 28°09' W 015°25'0 0.0
2018-Mar-25 08:30N 28°09' W 015°25'0 0.0
2018-Mar-25 08:00N 28°09' W 015°25'0 0.0
2018-Mar-25 07:30N 28°09' W 015°25'0 0.0
2018-Mar-25 07:00N 28°09' W 015°25'0 0.0
2018-Mar-25 06:30N 28°09' W 015°25'0 0.0
2018-Mar-25 06:00N 28°09' W 015°25'0 0.0
2018-Mar-25 05:30N 28°09' W 015°25'0 0.0
2018-Mar-25 05:00N 28°09' W 015°25'0 0.0
2018-Mar-25 04:30N 28°09' W 015°25'0 0.0
2018-Mar-25 04:00N 28°09' W 015°25'0 0.0
2018-Mar-25 03:30N 28°09' W 015°25'0 0.0
2018-Mar-25 03:00N 28°09' W 015°25'0 0.0
2018-Mar-25 02:30N 28°09' W 015°25'0 0.0
2018-Mar-25 02:00N 28°09' W 015°25'0 0.0
2018-Mar-25 01:30N 28°09' W 015°25'0 0.0
2018-Mar-25 01:00N 28°09' W 015°25'0 0.0
2018-Mar-25 00:30N 28°09' W 015°25'0 0.0
2018-Mar-25 00:00N 28°09' W 015°25'0 0.0
2018-Mar-24 23:30N 28°09' W 015°25'0 0.0
2018-Mar-24 23:00N 28°09' W 015°25'0 0.0
2018-Mar-24 22:29N 28°09' W 015°25'0 0.0
2018-Mar-24 22:00N 28°09' W 015°25'0 0.0
2018-Mar-24 21:29N 28°09' W 015°25'0 0.0
2018-Mar-24 21:00N 28°09' W 015°25'0 0.0
2018-Mar-24 20:30N 28°09' W 015°25'0 0.0
2018-Mar-24 20:00N 28°09' W 015°25'0 0.0
2018-Mar-24 19:31N 28°09' W 015°25'0 0.0
2018-Mar-24 19:01N 28°09' W 015°25'0 0.0
2018-Mar-24 18:31N 28°09' W 015°25'0 0.0
2018-Mar-24 18:00N 28°09' W 015°25'0 0.0
2018-Mar-24 17:30N 28°09' W 015°25'0 0.0
2018-Mar-24 17:01N 28°09' W 015°25'0 0.0
2018-Mar-24 16:30N 28°09' W 015°25'0 0.0
2018-Mar-24 16:00N 28°09' W 015°25'0 0.0
2018-Mar-24 15:30N 28°09' W 015°25'0 0.0
2018-Mar-24 15:00N 28°09' W 015°25'0 0.0
2018-Mar-24 14:30N 28°09' W 015°25'0 0.0
2018-Mar-24 14:00N 28°09' W 015°25'0 0.0
2018-Mar-24 13:30N 28°09' W 015°25'0 0.0
2018-Mar-24 13:00N 28°09' W 015°25'0 0.0
2018-Mar-24 12:30N 28°09' W 015°25'0 0.0
2018-Mar-24 12:00N 28°09' W 015°25'0 0.0
2018-Mar-24 11:27N 28°09' W 015°25'0 0.0
2018-Mar-24 11:00N 28°09' W 015°25'0 0.0
2018-Mar-24 10:30N 28°09' W 015°25'0 0.0
2018-Mar-24 10:00N 28°09' W 015°25'0 0.0
2018-Mar-24 09:30N 28°09' W 015°25'0 0.0
2018-Mar-24 09:00N 28°09' W 015°25'0 0.0
2018-Mar-24 08:28N 28°09' W 015°25'0 0.0
2018-Mar-24 08:00N 28°09' W 015°25'0 0.0
2018-Mar-24 07:30N 28°09' W 015°25'0 0.0
2018-Mar-24 07:00N 28°09' W 015°25'0 0.0
2018-Mar-24 06:30N 28°09' W 015°25'0 0.0
2018-Mar-24 06:00N 28°09' W 015°25'0 0.0
2018-Mar-24 05:30N 28°09' W 015°25'0 0.0
2018-Mar-24 05:00N 28°09' W 015°25'0 0.0
2018-Mar-24 04:31N 28°09' W 015°25'0 0.0
2018-Mar-24 04:00N 28°09' W 015°25'0 0.0
2018-Mar-24 03:30N 28°09' W 015°25'0 0.0
2018-Mar-24 03:01N 28°09' W 015°25'0 0.0
2018-Mar-24 02:30N 28°09' W 015°25'0 0.0
2018-Mar-24 02:00N 28°09' W 015°25'0 0.0
2018-Mar-24 01:30N 28°09' W 015°25'0 0.0
2018-Mar-24 01:00N 28°09' W 015°25'0 0.0
2018-Mar-24 00:30N 28°09' W 015°25'0 0.0
2018-Mar-24 00:00N 28°09' W 015°25'0 0.0
2018-Mar-23 23:30N 28°09' W 015°25'0 0.0
2018-Mar-23 22:59N 28°09' W 015°25'0 0.0
2018-Mar-23 22:30N 28°09' W 015°25'0 0.0
2018-Mar-23 22:00N 28°09' W 015°25'0 0.0
2018-Mar-23 21:30N 28°09' W 015°25'0 0.0
2018-Mar-23 21:00N 28°09' W 015°25'0 0.0
2018-Mar-23 20:30N 28°09' W 015°25'0 0.0
2018-Mar-23 20:00N 28°09' W 015°25'0 0.0
2018-Mar-23 19:30N 28°09' W 015°25'0 0.0
2018-Mar-23 19:01N 28°09' W 015°25'0 0.0
2018-Mar-23 18:31N 28°09' W 015°25'0 0.0
2018-Mar-23 18:00N 28°09' W 015°25'0 0.0
2018-Mar-23 17:30N 28°09' W 015°25'0 0.0
2018-Mar-23 17:00N 28°09' W 015°25'0 0.0
2018-Mar-23 16:30N 28°09' W 015°25'0 0.0
2018-Mar-23 16:01N 28°09' W 015°25'0 0.0
2018-Mar-23 15:31N 28°09' W 015°25'0 0.0
2018-Mar-23 15:00N 28°09' W 015°25'0 0.0
2018-Mar-23 14:31N 28°09' W 015°25'0 0.0
2018-Mar-23 14:01N 28°09' W 015°25'0 0.0
2018-Mar-23 13:30N 28°09' W 015°25'0 0.0
2018-Mar-23 13:00N 28°09' W 015°25'0 0.0
2018-Mar-23 12:30N 28°09' W 015°25'0 0.0
2018-Mar-23 12:00N 28°09' W 015°25'0 0.0
2018-Mar-23 11:30N 28°09' W 015°25'0 0.0
2018-Mar-23 11:00N 28°09' W 015°25'0 0.0
2018-Mar-23 10:30N 28°09' W 015°25'0 0.0
2018-Mar-23 10:00N 28°09' W 015°25'0 0.0
2018-Mar-23 09:30N 28°09' W 015°25'0 0.0
2018-Mar-23 09:00N 28°09' W 015°25'0 0.0
2018-Mar-23 08:30N 28°09' W 015°25'0 0.0
2018-Mar-23 08:00N 28°09' W 015°25'0 0.0
2018-Mar-23 07:30N 28°09' W 015°25'0 0.0
2018-Mar-23 07:00N 28°09' W 015°25'0 0.0
2018-Mar-23 06:30N 28°09' W 015°25'0 0.0
2018-Mar-23 06:00N 28°09' W 015°25'0 0.0
2018-Mar-23 05:30N 28°09' W 015°25'0 0.0
2018-Mar-23 05:00N 28°09' W 015°25'0 0.0
2018-Mar-23 04:30N 28°09' W 015°25'0 0.0
2018-Mar-23 04:01N 28°09' W 015°25'0 0.0
2018-Mar-23 03:31N 28°09' W 015°25'0 0.0
2018-Mar-23 03:00N 28°09' W 015°25'0 0.0
2018-Mar-23 02:31N 28°09' W 015°25'0 0.0
2018-Mar-23 02:00N 28°09' W 015°25'0 0.0
2018-Mar-23 01:31N 28°09' W 015°25'0 0.0
2018-Mar-23 01:00N 28°09' W 015°25'0 0.0
2018-Mar-23 00:30N 28°09' W 015°25'0 0.0
2018-Mar-23 00:00N 28°09' W 015°25'0 0.0
2018-Mar-22 23:30N 28°09' W 015°25'0 0.0
2018-Mar-22 23:00N 28°09' W 015°25'0 0.0
2018-Mar-22 22:30N 28°09' W 015°25'0 0.0
2018-Mar-22 22:00N 28°09' W 015°25'0 0.0
2018-Mar-22 21:30N 28°09' W 015°25'0 0.0
2018-Mar-22 21:00N 28°09' W 015°25'0 0.0
2018-Mar-22 20:30N 28°09' W 015°25'0 0.0
2018-Mar-22 20:00N 28°09' W 015°25'0 0.0
2018-Mar-22 19:30N 28°09' W 015°25'0 0.0
2018-Mar-22 19:00N 28°09' W 015°25'0 0.0
2018-Mar-22 18:30N 28°09' W 015°25'0 0.0
2018-Mar-22 18:00N 28°09' W 015°25'0 0.0
2018-Mar-22 17:30N 28°09' W 015°25'0 0.0
2018-Mar-22 17:00N 28°09' W 015°25'0 0.0
2018-Mar-22 16:30N 28°09' W 015°25'0 0.0
2018-Mar-22 16:00N 28°09' W 015°25'0 0.0
2018-Mar-22 15:30N 28°09' W 015°25'0 0.0
2018-Mar-22 15:00N 28°09' W 015°25'0 0.0
2018-Mar-22 14:30N 28°09' W 015°25'0 0.0
2018-Mar-22 14:00N 28°09' W 015°25'0 0.0
2018-Mar-22 13:29N 28°09' W 015°25'0 0.0
2018-Mar-22 13:00N 28°09' W 015°25'0 0.0
2018-Mar-22 12:30N 28°09' W 015°25'0 0.0
2018-Mar-22 12:00N 28°09' W 015°25'0 0.0
2018-Mar-21 20:03N 28°09' W 015°25'0 0.0
2018-Mar-21 20:00N 28°09' W 015°25'0 0.0
2018-Mar-21 19:30N 28°09' W 015°25'0 0.0
2018-Mar-21 19:00N 28°09' W 015°25'0 0.0
2018-Mar-21 18:29N 28°09' W 015°25'0 0.0
2018-Mar-21 18:00N 28°09' W 015°25'0 0.0
2018-Mar-21 17:15N 28°09' W 015°25'0 0.0
2018-Mar-21 17:00N 28°09' W 015°25'0 0.0
2018-Mar-21 16:30N 28°09' W 015°25'0 0.0
2018-Mar-21 16:01N 28°09' W 015°25'0 0.0
2018-Mar-21 15:31N 28°09' W 015°25'0 0.0
2018-Mar-21 15:01N 28°09' W 015°25'0 0.0
2018-Mar-21 14:30N 28°09' W 015°25'0 0.0
2018-Mar-21 14:00N 28°09' W 015°25'0 0.0
2018-Mar-21 13:31N 28°09' W 015°25'0 0.0
2018-Mar-21 13:00N 28°09' W 015°25'0 0.0
2018-Mar-21 12:31N 28°09' W 015°25'0 0.0
2018-Mar-21 12:00N 28°09' W 015°25'0 0.0
2018-Mar-21 11:30N 28°09' W 015°25'0 0.0
2018-Mar-21 10:59N 28°09' W 015°25'0 0.0
2018-Mar-21 10:30N 28°09' W 015°25'0 0.0
2018-Mar-21 10:00N 28°09' W 015°25'0 0.0
2018-Mar-21 09:30N 28°09' W 015°25'0 0.0
2018-Mar-21 09:00N 28°09' W 015°25'0 0.0
2018-Mar-21 08:30N 28°09' W 015°25'0 0.0
2018-Mar-21 08:00N 28°09' W 015°25'0 0.0
2018-Mar-21 07:30N 28°09' W 015°25'0 0.0
2018-Mar-21 07:00N 28°09' W 015°25'0 0.0
2018-Mar-21 06:30N 28°09' W 015°25'0 0.0
2018-Mar-21 06:00N 28°09' W 015°25'0 0.0
2018-Mar-21 05:30N 28°09' W 015°25'0 0.0
2018-Mar-21 05:00N 28°09' W 015°25'0 0.0
2018-Mar-21 04:30N 28°09' W 015°25'0 0.0
2018-Mar-21 04:01N 28°09' W 015°25'0 0.0
2018-Mar-21 03:31N 28°09' W 015°25'0 0.0
2018-Mar-21 03:01N 28°09' W 015°25'0 0.0
2018-Mar-21 02:31N 28°09' W 015°25'0 0.0
2018-Mar-21 02:01N 28°09' W 015°25'0 0.0
2018-Mar-21 01:30N 28°09' W 015°25'0 0.0
2018-Mar-21 01:01N 28°09' W 015°25'0 0.0
2018-Mar-21 00:30N 28°09' W 015°25'0 0.0
2018-Mar-21 00:00N 28°09' W 015°25'0 0.0
2018-Mar-20 23:30N 28°09' W 015°25'0 0.0
2018-Mar-20 23:01N 28°09' W 015°25'0 0.0
2018-Mar-20 22:30N 28°09' W 015°25'0 0.0
2018-Mar-20 21:57N 28°09' W 015°25'0 0.0
2018-Mar-20 21:30N 28°09' W 015°25'0 0.0
2018-Mar-20 21:00N 28°09' W 015°25'0 0.0
2018-Mar-20 20:29N 28°09' W 015°25'0 0.0
2018-Mar-20 20:00N 28°09' W 015°25'0 0.0
2018-Mar-20 19:30N 28°09' W 015°25'0 0.0
2018-Mar-20 19:00N 28°09' W 015°25'0 0.0
2018-Mar-20 18:30N 28°09' W 015°25'0 0.0
2018-Mar-20 18:00N 28°09' W 015°25'0 0.0
2018-Mar-20 17:30N 28°09' W 015°25'0 0.0
2018-Mar-20 17:00N 28°09' W 015°25'0 0.0
2018-Mar-20 16:30N 28°09' W 015°25'0 0.0
2018-Mar-20 16:00N 28°09' W 015°25'0 0.0
2018-Mar-20 15:30N 28°09' W 015°25'0 0.0
2018-Mar-20 14:59N 28°09' W 015°25'0 0.0
2018-Mar-20 14:30N 28°09' W 015°25'0 0.0
2018-Mar-20 14:01N 28°09' W 015°25'0 0.0
2018-Mar-20 13:31N 28°09' W 015°25'0 0.0
2018-Mar-20 12:58N 28°09' W 015°25'0 0.0
2018-Mar-20 09:14N 28°09' W 015°25'0 0.0
2018-Mar-20 09:00N 28°09' W 015°25'0 0.3
2018-Mar-20 08:30N 28°09' W 015°25'1 1.6
2018-Mar-20 08:00N 28°08' W 015°25'0 0.5
2018-Mar-20 07:29N 28°09' W 015°26'0 0.0
2018-Mar-20 07:00N 28°09' W 015°26'0 0.0
2018-Mar-20 06:29N 28°09' W 015°26'0 0.0
2018-Mar-20 06:00N 28°09' W 015°26'0 0.0
2018-Mar-20 05:27N 28°09' W 015°26'0 0.0
2018-Mar-20 05:00N 28°09' W 015°26'0 0.0
2018-Mar-20 04:29N 28°09' W 015°26'0 0.0
2018-Mar-20 03:58N 28°09' W 015°26'0 0.0
2018-Mar-20 03:30N 28°09' W 015°26'0 0.0
2018-Mar-20 03:00N 28°09' W 015°26'0 0.0
2018-Mar-20 02:30N 28°09' W 015°26'0 0.0
2018-Mar-20 02:00N 28°09' W 015°26'0 0.0
2018-Mar-20 01:27N 28°09' W 015°26'0 0.0
2018-Mar-20 00:58N 28°09' W 015°26'0 0.0
2018-Mar-20 00:30N 28°09' W 015°26'0 0.0
2018-Mar-20 00:00N 28°09' W 015°26'0 0.0
2018-Mar-19 23:30N 28°09' W 015°26'0 0.0
2018-Mar-19 23:00N 28°09' W 015°26'0 0.0
2018-Mar-19 22:30N 28°09' W 015°26'0 0.0
2018-Mar-19 22:00N 28°09' W 015°26'0 0.0
2018-Mar-19 21:30N 28°09' W 015°26'0 0.0
2018-Mar-19 20:59N 28°09' W 015°26'0 0.0
2018-Mar-19 20:30N 28°09' W 015°26'0 0.0
2018-Mar-19 20:00N 28°09' W 015°26'0 0.0
2018-Mar-19 19:30N 28°09' W 015°26'0 0.0
2018-Mar-19 19:00N 28°09' W 015°26'0 0.0
2018-Mar-19 18:30N 28°09' W 015°26'0 0.0
2018-Mar-19 17:56N 28°09' W 015°26'0 0.0
2018-Mar-19 17:15N 28°09' W 015°26'0 0.0
2018-Mar-19 17:00N 28°09' W 015°26'0 0.0
2018-Mar-19 16:30N 28°09' W 015°26'0 0.0
2018-Mar-19 16:00N 28°09' W 015°26'0 0.0
2018-Mar-19 15:30N 28°09' W 015°26'0 0.0
2018-Mar-19 15:00N 28°09' W 015°26'0 0.0
2018-Mar-19 14:30N 28°09' W 015°26'  
Track history (hours):
 
Tides and Currents Weather Stations Pressure Air Temp Water Temp Dewpoint Dewpoint Depression Visibility Wind Speed Wind Dir Waves Ship Positions

Daziazet -1

Last reported at 2018-Mar-29 14:05 UTC. Time now 2018-Jun-19 12:46 UTC.
Position N 27°53' W 015°20'.
Warning: this ship's position is months out of date.

MMSI: 652997224.

Date/timePositionNaut miles runAvg speedWind from/ knotsBaromVisibWave heightAir tempDewpointWater temp
2018-Mar-29 14:05N 27°53' W 015°20'1 8.7
2018-Mar-29 14:00N 27°54' W 015°20'4 8.2
2018-Mar-29 13:27N 27°59' W 015°20'4 8.0
2018-Mar-29 13:00N 28°02' W 015°21'4 7.7
2018-Mar-29 12:30N 28°06' W 015°23'3 6.9
2018-Mar-29 12:00N 28°08' W 015°25'0 0.9
2018-Mar-29 11:31N 28°09' W 015°25'0 0.0
2018-Mar-29 11:01N 28°09' W 015°25'0 0.0
2018-Mar-29 10:31N 28°09' W 015°25'0 0.0
2018-Mar-29 10:00N 28°09' W 015°25'0 0.0
2018-Mar-29 09:30N 28°09' W 015°25'0 0.0
2018-Mar-29 09:00N 28°09' W 015°25'0 0.0
2018-Mar-29 08:30N 28°09' W 015°25'0 0.0
2018-Mar-29 08:00N 28°09' W 015°25'0 0.0
2018-Mar-29 07:30N 28°09' W 015°25'0 0.0
2018-Mar-29 06:59N 28°09' W 015°25'0 0.0
2018-Mar-29 06:30N 28°09' W 015°25'0 0.0
2018-Mar-29 06:00N 28°09' W 015°25'0 0.0
2018-Mar-29 05:30N 28°09' W 015°25'0 0.0
2018-Mar-29 05:00N 28°09' W 015°25'0 0.0
2018-Mar-29 04:30N 28°09' W 015°25'0 0.0
2018-Mar-29 04:00N 28°09' W 015°25'0 0.0
2018-Mar-29 03:30N 28°09' W 015°25'0 0.0
2018-Mar-29 02:59N 28°09' W 015°25'0 0.0
2018-Mar-29 02:30N 28°09' W 015°25'0 0.0
2018-Mar-29 02:00N 28°09' W 015°25'0 0.0
2018-Mar-29 01:30N 28°09' W 015°25'0 0.0
2018-Mar-29 01:01N 28°09' W 015°25'0 0.0
2018-Mar-29 00:30N 28°09' W 015°25'0 0.0
2018-Mar-29 00:01N 28°09' W 015°25'0 0.0
2018-Mar-28 23:30N 28°09' W 015°25'0 0.0
2018-Mar-28 23:00N 28°09' W 015°25'0 0.0
2018-Mar-28 22:30N 28°09' W 015°25'0 0.0
2018-Mar-28 22:00N 28°09' W 015°25'0 0.0
2018-Mar-28 21:30N 28°09' W 015°25'0 0.0
2018-Mar-28 21:00N 28°09' W 015°25'0 0.0
2018-Mar-28 20:27N 28°09' W 015°25'0 0.0
2018-Mar-28 20:00N 28°09' W 015°25'0 0.0
2018-Mar-28 19:29N 28°09' W 015°25'0 0.0
2018-Mar-28 19:01N 28°09' W 015°25'2 3.4
2018-Mar-28 18:30N 28°07' W 015°25'1 1.6
2018-Mar-28 18:00N 28°07' W 015°24'2 4.1
2018-Mar-28 17:30N 28°09' W 015°25'0 0.2
2018-Mar-28 17:00N 28°09' W 015°25'0 0.1
2018-Mar-28 16:29N 28°09' W 015°25'0 0.0
2018-Mar-28 15:59N 28°09' W 015°25'0 0.1
2018-Mar-28 15:30N 28°09' W 015°25'0 0.0
2018-Mar-28 15:00N 28°09' W 015°25'0 0.0
2018-Mar-28 14:30N 28°09' W 015°25'0 0.0
2018-Mar-28 13:59N 28°09' W 015°25'0 0.0
2018-Mar-28 13:30N 28°09' W 015°25'0 0.0
2018-Mar-28 13:00N 28°09' W 015°25'0 0.0
2018-Mar-28 12:30N 28°09' W 015°25'0 0.0
2018-Mar-28 12:00N 28°09' W 015°25'0 0.0
2018-Mar-28 11:29N 28°09' W 015°25'0 0.0
2018-Mar-28 11:00N 28°09' W 015°25'0 0.0
2018-Mar-28 10:30N 28°09' W 015°25'0 0.0
2018-Mar-28 10:00N 28°09' W 015°25'0 0.0
2018-Mar-28 09:30N 28°09' W 015°25'0 0.0
2018-Mar-28 09:00N 28°09' W 015°25'0 0.0
2018-Mar-28 08:30N 28°09' W 015°25'0 0.0
2018-Mar-28 07:57N 28°09' W 015°25'0 0.0
2018-Mar-28 07:30N 28°09' W 015°25'0 0.0
2018-Mar-28 07:00N 28°09' W 015°25'0 0.0
2018-Mar-28 06:30N 28°09' W 015°25'0 0.0
2018-Mar-28 06:00N 28°09' W 015°25'0 0.0
2018-Mar-28 05:30N 28°09' W 015°25'0 0.0
2018-Mar-28 05:00N 28°09' W 015°25'0 0.0
2018-Mar-28 04:30N 28°09' W 015°25'0 0.0
2018-Mar-28 04:00N 28°09' W 015°25'0 0.0
2018-Mar-28 03:30N 28°09' W 015°25'0 0.0
2018-Mar-28 03:00N 28°09' W 015°25'0 0.0
2018-Mar-28 02:30N 28°09' W 015°25'0 0.0
2018-Mar-28 02:00N 28°09' W 015°25'0 0.0
2018-Mar-28 01:29N 28°09' W 015°25'0 0.0
2018-Mar-28 01:00N 28°09' W 015°25'0 0.0
2018-Mar-28 00:30N 28°09' W 015°25'0 0.0
2018-Mar-28 00:00N 28°09' W 015°25'0 0.0
2018-Mar-27 23:30N 28°09' W 015°25'0 0.0
2018-Mar-27 23:00N 28°09' W 015°25'0 0.0
2018-Mar-27 22:30N 28°09' W 015°25'0 0.0
2018-Mar-27 22:00N 28°09' W 015°25'0 0.0
2018-Mar-27 21:30N 28°09' W 015°25'0 0.0
2018-Mar-27 21:00N 28°09' W 015°25'0 0.0
2018-Mar-27 20:30N 28°09' W 015°25'0 0.0
2018-Mar-27 20:00N 28°09' W 015°25'0 0.0
2018-Mar-27 19:28N 28°09' W 015°25'0 0.0
2018-Mar-27 19:00N 28°09' W 015°25'0 0.0
2018-Mar-27 18:27N 28°09' W 015°25'0 0.0
2018-Mar-27 18:00N 28°09' W 015°25'0 0.0
2018-Mar-27 17:30N 28°09' W 015°25'0 0.0
2018-Mar-27 17:00N 28°09' W 015°25'0 0.0
2018-Mar-27 16:28N 28°09' W 015°25'0 0.0
2018-Mar-27 16:00N 28°09' W 015°25'0 0.0
2018-Mar-27 15:30N 28°09' W 015°25'0 0.0
2018-Mar-27 15:00N 28°09' W 015°25'0 0.0
2018-Mar-27 14:30N 28°09' W 015°25'0 0.0
2018-Mar-27 14:00N 28°09' W 015°25'0 0.0
2018-Mar-27 13:30N 28°09' W 015°25'0 0.0
2018-Mar-27 13:00N 28°09' W 015°25'0 0.0
2018-Mar-27 12:30N 28°09' W 015°25'0 0.0
2018-Mar-27 12:00N 28°09' W 015°25'0 0.0
2018-Mar-27 11:30N 28°09' W 015°25'0 0.0
2018-Mar-27 11:00N 28°09' W 015°25'0 0.0
2018-Mar-27 10:30N 28°09' W 015°25'0 0.0
2018-Mar-27 10:00N 28°09' W 015°25'0 0.0
2018-Mar-27 09:30N 28°09' W 015°25'0 0.0
2018-Mar-27 09:00N 28°09' W 015°25'0 0.0
2018-Mar-27 08:30N 28°09' W 015°25'0 0.0
2018-Mar-27 08:00N 28°09' W 015°25'0 0.0
2018-Mar-27 07:28N 28°09' W 015°25'0 0.0
2018-Mar-27 07:00N 28°09' W 015°25'0 0.0
2018-Mar-27 06:30N 28°09' W 015°25'0 0.0
2018-Mar-27 06:01N 28°09' W 015°25'0 0.0
2018-Mar-27 05:30N 28°09' W 015°25'0 0.0
2018-Mar-27 05:00N 28°09' W 015°25'0 0.0
2018-Mar-27 04:30N 28°09' W 015°25'0 0.0
2018-Mar-27 04:00N 28°09' W 015°25'0 0.0
2018-Mar-27 03:30N 28°09' W 015°25'0 0.0
2018-Mar-27 03:00N 28°09' W 015°25'0 0.0
2018-Mar-27 02:30N 28°09' W 015°25'0 0.0
2018-Mar-27 02:00N 28°09' W 015°25'0 0.0
2018-Mar-27 01:30N 28°09' W 015°25'0 0.0
2018-Mar-27 01:00N 28°09' W 015°25'0 0.0
2018-Mar-27 00:26N 28°09' W 015°25'0 0.0
2018-Mar-27 00:00N 28°09' W 015°25'0 0.0
2018-Mar-26 23:30N 28°09' W 015°25'0 0.0
2018-Mar-26 23:00N 28°09' W 015°25'0 0.0
2018-Mar-26 22:30N 28°09' W 015°25'0 0.0
2018-Mar-26 22:00N 28°09' W 015°25'0 0.0
2018-Mar-26 21:29N 28°09' W 015°25'0 0.0
2018-Mar-26 21:00N 28°09' W 015°25'0 0.0
2018-Mar-26 20:30N 28°09' W 015°25'0 0.0
2018-Mar-26 20:00N 28°09' W 015°25'0 0.0
2018-Mar-26 19:30N 28°09' W 015°25'0 0.0
2018-Mar-26 19:00N 28°09' W 015°25'0 0.0
2018-Mar-26 18:30N 28°09' W 015°25'0 0.0
2018-Mar-26 18:00N 28°09' W 015°25'0 0.0
2018-Mar-26 17:30N 28°09' W 015°25'0 0.0
2018-Mar-26 17:00N 28°09' W 015°25'0 0.0
2018-Mar-26 16:30N 28°09' W 015°25'0 0.0
2018-Mar-26 15:54N 28°09' W 015°25'0 0.0
2018-Mar-26 15:30N 28°09' W 015°25'0 0.0
2018-Mar-26 15:00N 28°09' W 015°25'0 0.0
2018-Mar-26 14:30N 28°09' W 015°25'0 0.0
2018-Mar-26 14:00N 28°09' W 015°25'0 0.0
2018-Mar-26 13:30N 28°09' W 015°25'0 0.0
2018-Mar-26 13:00N 28°09' W 015°25'0 0.0
2018-Mar-26 12:29N 28°09' W 015°25'0 0.0
2018-Mar-26 12:00N 28°09' W 015°25'0 0.0
2018-Mar-26 11:30N 28°09' W 015°25'0 0.0
2018-Mar-26 11:00N 28°09' W 015°25'0 0.0
2018-Mar-26 10:30N 28°09' W 015°25'0 0.0
2018-Mar-26 10:00N 28°09' W 015°25'0 0.0
2018-Mar-26 09:30N 28°09' W 015°25'0 0.0
2018-Mar-26 09:00N 28°09' W 015°25'0 0.0
2018-Mar-26 08:29N 28°09' W 015°25'0 0.0
2018-Mar-26 08:00N 28°09' W 015°25'0 0.0
2018-Mar-26 07:28N 28°09' W 015°25'0 0.0
2018-Mar-26 07:00N 28°09' W 015°25'0 0.0
2018-Mar-26 06:30N 28°09' W 015°25'0 0.0
2018-Mar-26 06:00N 28°09' W 015°25'0 0.0
2018-Mar-26 05:30N 28°09' W 015°25'0 0.0
2018-Mar-26 05:00N 28°09' W 015°25'0 0.0
2018-Mar-26 04:30N 28°09' W 015°25'0 0.0
2018-Mar-26 04:00N 28°09' W 015°25'0 0.0
2018-Mar-26 03:30N 28°09' W 015°25'0 0.0
2018-Mar-26 03:01N 28°09' W 015°25'0 0.0
2018-Mar-26 02:30N 28°09' W 015°25'0 0.0
2018-Mar-26 02:00N 28°09' W 015°25'0 0.0
2018-Mar-26 01:30N 28°09' W 015°25'0 0.0
2018-Mar-26 01:00N 28°09' W 015°25'0 0.0
2018-Mar-26 00:31N 28°09' W 015°25'0 0.0
2018-Mar-26 00:00N 28°09' W 015°25'0 0.0
2018-Mar-25 23:31N 28°09' W 015°25'0 0.0
2018-Mar-25 23:01N 28°09' W 015°25'0 0.0
2018-Mar-25 22:31N 28°09' W 015°25'0 0.0
2018-Mar-25 22:00N 28°09' W 015°25'0 0.0
2018-Mar-25 21:30N 28°09' W 015°25'0 0.0
2018-Mar-25 21:00N 28°09' W 015°25'0 0.0
2018-Mar-25 20:30N 28°09' W 015°25'0 0.0
2018-Mar-25 20:00N 28°09' W 015°25'0 0.0
2018-Mar-25 19:30N 28°09' W 015°25'0 0.0
2018-Mar-25 19:00N 28°09' W 015°25'0 0.0
2018-Mar-25 18:30N 28°09' W 015°25'0 0.0
2018-Mar-25 18:00N 28°09' W 015°25'0 0.0
2018-Mar-25 17:28N 28°09' W 015°25'0 0.0
2018-Mar-25 17:00N 28°09' W 015°25'0 0.0
2018-Mar-25 16:28N 28°09' W 015°25'0 0.0
2018-Mar-25 16:00N 28°09' W 015°25'0 0.0
2018-Mar-25 15:30N 28°09' W 015°25'0 0.0
2018-Mar-25 15:00N 28°09' W 015°25'0 0.0
2018-Mar-25 14:30N 28°09' W 015°25'0 0.0
2018-Mar-25 13:58N 28°09' W 015°25'0 0.0
2018-Mar-25 13:30N 28°09' W 015°25'0 0.0
2018-Mar-25 13:00N 28°09' W 015°25'0 0.0
2018-Mar-25 12:30N 28°09' W 015°25'0 0.0
2018-Mar-25 12:00N 28°09' W 015°25'0 0.0
2018-Mar-25 11:30N 28°09' W 015°25'0 0.0
2018-Mar-25 10:59N 28°09' W 015°25'0 0.0
2018-Mar-25 10:30N 28°09' W 015°25'0 0.0
2018-Mar-25 10:00N 28°09' W 015°25'0 0.0
2018-Mar-25 09:30N 28°09' W 015°25'0 0.0
2018-Mar-25 09:00N 28°09' W 015°25'0 0.0
2018-Mar-25 08:30N 28°09' W 015°25'0 0.0
2018-Mar-25 08:00N 28°09' W 015°25'0 0.0
2018-Mar-25 07:30N 28°09' W 015°25'0 0.0
2018-Mar-25 07:00N 28°09' W 015°25'0 0.0
2018-Mar-25 06:30N 28°09' W 015°25'0 0.0
2018-Mar-25 06:00N 28°09' W 015°25'0 0.0
2018-Mar-25 05:30N 28°09' W 015°25'0 0.0
2018-Mar-25 05:00N 28°09' W 015°25'0 0.0
2018-Mar-25 04:30N 28°09' W 015°25'0 0.0
2018-Mar-25 04:00N 28°09' W 015°25'0 0.0
2018-Mar-25 03:30N 28°09' W 015°25'0 0.0
2018-Mar-25 03:00N 28°09' W 015°25'0 0.0
2018-Mar-25 02:30N 28°09' W 015°25'0 0.0
2018-Mar-25 02:00N 28°09' W 015°25'0 0.0
2018-Mar-25 01:30N 28°09' W 015°25'0 0.0
2018-Mar-25 01:00N 28°09' W 015°25'0 0.0
2018-Mar-25 00:30N 28°09' W 015°25'0 0.0
2018-Mar-25 00:00N 28°09' W 015°25'0 0.0
2018-Mar-24 23:30N 28°09' W 015°25'0 0.0
2018-Mar-24 23:00N 28°09' W 015°25'0 0.0
2018-Mar-24 22:29N 28°09' W 015°25'0 0.0
2018-Mar-24 22:00N 28°09' W 015°25'0 0.0
2018-Mar-24 21:29N 28°09' W 015°25'0 0.0
2018-Mar-24 21:00N 28°09' W 015°25'0 0.0
2018-Mar-24 20:30N 28°09' W 015°25'0 0.0
2018-Mar-24 20:00N 28°09' W 015°25'0 0.0
2018-Mar-24 19:31N 28°09' W 015°25'0 0.0
2018-Mar-24 19:01N 28°09' W 015°25'0 0.0
2018-Mar-24 18:31N 28°09' W 015°25'0 0.0
2018-Mar-24 18:00N 28°09' W 015°25'0 0.0
2018-Mar-24 17:30N 28°09' W 015°25'0 0.0
2018-Mar-24 17:01N 28°09' W 015°25'0 0.0
2018-Mar-24 16:30N 28°09' W 015°25'0 0.0
2018-Mar-24 16:00N 28°09' W 015°25'0 0.0
2018-Mar-24 15:30N 28°09' W 015°25'0 0.0
2018-Mar-24 15:00N 28°09' W 015°25'0 0.0
2018-Mar-24 14:30N 28°09' W 015°25'0 0.0
2018-Mar-24 14:00N 28°09' W 015°25'0 0.0
2018-Mar-24 13:30N 28°09' W 015°25'0 0.0
2018-Mar-24 13:00N 28°09' W 015°25'0 0.0
2018-Mar-24 12:30N 28°09' W 015°25'0 0.0
2018-Mar-24 12:00N 28°09' W 015°25'0 0.0
2018-Mar-24 11:27N 28°09' W 015°25'0 0.0
2018-Mar-24 11:00N 28°09' W 015°25'0 0.0
2018-Mar-24 10:30N 28°09' W 015°25'0 0.0
2018-Mar-24 10:00N 28°09' W 015°25'0 0.0
2018-Mar-24 09:30N 28°09' W 015°25'0 0.0
2018-Mar-24 09:00N 28°09' W 015°25'0 0.0
2018-Mar-24 08:28N 28°09' W 015°25'0 0.0
2018-Mar-24 08:00N 28°09' W 015°25'0 0.0
2018-Mar-24 07:30N 28°09' W 015°25'0 0.0
2018-Mar-24 07:00N 28°09' W 015°25'0 0.0
2018-Mar-24 06:30N 28°09' W 015°25'0 0.0
2018-Mar-24 06:00N 28°09' W 015°25'0 0.0
2018-Mar-24 05:30N 28°09' W 015°25'0 0.0
2018-Mar-24 05:00N 28°09' W 015°25'0 0.0
2018-Mar-24 04:31N 28°09' W 015°25'0 0.0
2018-Mar-24 04:00N 28°09' W 015°25'0 0.0
2018-Mar-24 03:30N 28°09' W 015°25'0 0.0
2018-Mar-24 03:01N 28°09' W 015°25'0 0.0
2018-Mar-24 02:30N 28°09' W 015°25'0 0.0
2018-Mar-24 02:00N 28°09' W 015°25'0 0.0
2018-Mar-24 01:30N 28°09' W 015°25'0 0.0
2018-Mar-24 01:00N 28°09' W 015°25'0 0.0
2018-Mar-24 00:30N 28°09' W 015°25'0 0.0
2018-Mar-24 00:00N 28°09' W 015°25'0 0.0
2018-Mar-23 23:30N 28°09' W 015°25'0 0.0
2018-Mar-23 22:59N 28°09' W 015°25'0 0.0
2018-Mar-23 22:30N 28°09' W 015°25'0 0.0
2018-Mar-23 22:00N 28°09' W 015°25'0 0.0
2018-Mar-23 21:30N 28°09' W 015°25'0 0.0
2018-Mar-23 21:00N 28°09' W 015°25'0 0.0
2018-Mar-23 20:30N 28°09' W 015°25'0 0.0
2018-Mar-23 20:00N 28°09' W 015°25'0 0.0
2018-Mar-23 19:30N 28°09' W 015°25'0 0.0
2018-Mar-23 19:01N 28°09' W 015°25'0 0.0
2018-Mar-23 18:31N 28°09' W 015°25'0 0.0
2018-Mar-23 18:00N 28°09' W 015°25'0 0.0
2018-Mar-23 17:30N 28°09' W 015°25'0 0.0
2018-Mar-23 17:00N 28°09' W 015°25'0 0.0
2018-Mar-23 16:30N 28°09' W 015°25'0 0.0
2018-Mar-23 16:01N 28°09' W 015°25'0 0.0
2018-Mar-23 15:31N 28°09' W 015°25'0 0.0
2018-Mar-23 15:00N 28°09' W 015°25'0 0.0
2018-Mar-23 14:31N 28°09' W 015°25'0 0.0
2018-Mar-23 14:01N 28°09' W 015°25'0 0.0
2018-Mar-23 13:30N 28°09' W 015°25'0 0.0
2018-Mar-23 13:00N 28°09' W 015°25'0 0.0
2018-Mar-23 12:30N 28°09' W 015°25'0 0.0
2018-Mar-23 12:00N 28°09' W 015°25'0 0.0
2018-Mar-23 11:30N 28°09' W 015°25'0 0.0
2018-Mar-23 11:00N 28°09' W 015°25'0 0.0
2018-Mar-23 10:30N 28°09' W 015°25'0 0.0
2018-Mar-23 10:00N 28°09' W 015°25'0 0.0
2018-Mar-23 09:30N 28°09' W 015°25'0 0.0
2018-Mar-23 09:00N 28°09' W 015°25'0 0.0
2018-Mar-23 08:30N 28°09' W 015°25'0 0.0
2018-Mar-23 08:00N 28°09' W 015°25'0 0.0
2018-Mar-23 07:30N 28°09' W 015°25'0 0.0
2018-Mar-23 07:00N 28°09' W 015°25'0 0.0
2018-Mar-23 06:30N 28°09' W 015°25'0 0.0
2018-Mar-23 06:00N 28°09' W 015°25'0 0.0
2018-Mar-23 05:30N 28°09' W 015°25'0 0.0
2018-Mar-23 05:00N 28°09' W 015°25'0 0.0
2018-Mar-23 04:30N 28°09' W 015°25'0 0.0
2018-Mar-23 04:01N 28°09' W 015°25'0 0.0
2018-Mar-23 03:31N 28°09' W 015°25'0 0.0
2018-Mar-23 03:00N 28°09' W 015°25'0 0.0
2018-Mar-23 02:31N 28°09' W 015°25'0 0.0
2018-Mar-23 02:00N 28°09' W 015°25'0 0.0
2018-Mar-23 01:31N 28°09' W 015°25'0 0.0
2018-Mar-23 01:00N 28°09' W 015°25'0 0.0
2018-Mar-23 00:30N 28°09' W 015°25'0 0.0
2018-Mar-23 00:00N 28°09' W 015°25'0 0.0
2018-Mar-22 23:30N 28°09' W 015°25'0 0.0
2018-Mar-22 23:00N 28°09' W 015°25'0 0.0
2018-Mar-22 22:30N 28°09' W 015°25'0 0.0
2018-Mar-22 22:00N 28°09' W 015°25'0 0.0
2018-Mar-22 21:30N 28°09' W 015°25'0 0.0
2018-Mar-22 21:00N 28°09' W 015°25'0 0.0
2018-Mar-22 20:30N 28°09' W 015°25'0 0.0
2018-Mar-22 20:00N 28°09' W 015°25'0 0.0
2018-Mar-22 19:30N 28°09' W 015°25'0 0.0
2018-Mar-22 19:00N 28°09' W 015°25'0 0.0
2018-Mar-22 18:30N 28°09' W 015°25'0 0.0
2018-Mar-22 18:00N 28°09' W 015°25'0 0.0
2018-Mar-22 17:30N 28°09' W 015°25'0 0.0
2018-Mar-22 17:00N 28°09' W 015°25'0 0.0
2018-Mar-22 16:30N 28°09' W 015°25'0 0.0
2018-Mar-22 16:00N 28°09' W 015°25'0 0.0
2018-Mar-22 15:30N 28°09' W 015°25'0 0.0
2018-Mar-22 15:00N 28°09' W 015°25'0 0.0
2018-Mar-22 14:30N 28°09' W 015°25'0 0.0
2018-Mar-22 14:00N 28°09' W 015°25'0 0.0
2018-Mar-22 13:29N 28°09' W 015°25'0 0.0
2018-Mar-22 13:00N 28°09' W 015°25'0 0.0
2018-Mar-22 12:30N 28°09' W 015°25'0 0.0
2018-Mar-22 12:00N 28°09' W 015°25'0 0.0
2018-Mar-21 20:03N 28°09' W 015°25'0 0.0
2018-Mar-21 20:00N 28°09' W 015°25'0 0.0
2018-Mar-21 19:30N 28°09' W 015°25'0 0.0
2018-Mar-21 19:00N 28°09' W 015°25'0 0.0
2018-Mar-21 18:29N 28°09' W 015°25'0 0.0
2018-Mar-21 18:00N 28°09' W 015°25'0 0.0
2018-Mar-21 17:15N 28°09' W 015°25'0 0.0
2018-Mar-21 17:00N 28°09' W 015°25'0 0.0
2018-Mar-21 16:30N 28°09' W 015°25'0 0.0
2018-Mar-21 16:01N 28°09' W 015°25'0 0.0
2018-Mar-21 15:31N 28°09' W 015°25'0 0.0
2018-Mar-21 15:01N 28°09' W 015°25'0 0.0
2018-Mar-21 14:30N 28°09' W 015°25'0 0.0
2018-Mar-21 14:00N 28°09' W 015°25'0 0.0
2018-Mar-21 13:31N 28°09' W 015°25'0 0.0
2018-Mar-21 13:00N 28°09' W 015°25'0 0.0
2018-Mar-21 12:31N 28°09' W 015°25'0 0.0
2018-Mar-21 12:00N 28°09' W 015°25'0 0.0
2018-Mar-21 11:30N 28°09' W 015°25'0 0.0
2018-Mar-21 10:59N 28°09' W 015°25'0 0.0
2018-Mar-21 10:30N 28°09' W 015°25'0 0.0
2018-Mar-21 10:00N 28°09' W 015°25'0 0.0
2018-Mar-21 09:30N 28°09' W 015°25'0 0.0
2018-Mar-21 09:00N 28°09' W 015°25'0 0.0
2018-Mar-21 08:30N 28°09' W 015°25'0 0.0
2018-Mar-21 08:00N 28°09' W 015°25'0 0.0
2018-Mar-21 07:30N 28°09' W 015°25'0 0.0
2018-Mar-21 07:00N 28°09' W 015°25'0 0.0
2018-Mar-21 06:30N 28°09' W 015°25'0 0.0
2018-Mar-21 06:00N 28°09' W 015°25'0 0.0
2018-Mar-21 05:30N 28°09' W 015°25'0 0.0
2018-Mar-21 05:00N 28°09' W 015°25'0 0.0
2018-Mar-21 04:30N 28°09' W 015°25'0 0.0
2018-Mar-21 04:01N 28°09' W 015°25'0 0.0
2018-Mar-21 03:31N 28°09' W 015°25'0 0.0
2018-Mar-21 03:01N 28°09' W 015°25'0 0.0
2018-Mar-21 02:31N 28°09' W 015°25'0 0.0
2018-Mar-21 02:01N 28°09' W 015°25'0 0.0
2018-Mar-21 01:30N 28°09' W 015°25'0 0.0
2018-Mar-21 01:01N 28°09' W 015°25'0 0.0
2018-Mar-21 00:30N 28°09' W 015°25'0 0.0
2018-Mar-21 00:00N 28°09' W 015°25'0 0.0
2018-Mar-20 23:30N 28°09' W 015°25'0 0.0
2018-Mar-20 23:01N 28°09' W 015°25'0 0.0
2018-Mar-20 22:30N 28°09' W 015°25'0 0.0
2018-Mar-20 21:57N 28°09' W 015°25'0 0.0
2018-Mar-20 21:30N 28°09' W 015°25'0 0.0
2018-Mar-20 21:00N 28°09' W 015°25'0 0.0
2018-Mar-20 20:29N 28°09' W 015°25'0 0.0
2018-Mar-20 20:00N 28°09' W 015°25'0 0.0
2018-Mar-20 19:30N 28°09' W 015°25'0 0.0
2018-Mar-20 19:00N 28°09' W 015°25'0 0.0
2018-Mar-20 18:30N 28°09' W 015°25'0 0.0
2018-Mar-20 18:00N 28°09' W 015°25'0 0.0
2018-Mar-20 17:30N 28°09' W 015°25'0 0.0
2018-Mar-20 17:00N 28°09' W 015°25'0 0.0
2018-Mar-20 16:30N 28°09' W 015°25'0 0.0
2018-Mar-20 16:00N 28°09' W 015°25'0 0.0
2018-Mar-20 15:30N 28°09' W 015°25'0 0.0
2018-Mar-20 14:59N 28°09' W 015°25'0 0.0
2018-Mar-20 14:30N 28°09' W 015°25'0 0.0
2018-Mar-20 14:01N 28°09' W 015°25'0 0.0
2018-Mar-20 13:31N 28°09' W 015°25'0 0.0
2018-Mar-20 12:58N 28°09' W 015°25'0 0.0
2018-Mar-20 09:14N 28°09' W 015°25'0 0.0
2018-Mar-20 09:00N 28°09' W 015°25'0 0.3
2018-Mar-20 08:30N 28°09' W 015°25'1 1.6
2018-Mar-20 08:00N 28°08' W 015°25'0 0.5
2018-Mar-20 07:29N 28°09' W 015°26'0 0.0
2018-Mar-20 07:00N 28°09' W 015°26'0 0.0
2018-Mar-20 06:29N 28°09' W 015°26'0 0.0
2018-Mar-20 06:00N 28°09' W 015°26'0 0.0
2018-Mar-20 05:27N 28°09' W 015°26'0 0.0
2018-Mar-20 05:00N 28°09' W 015°26'0 0.0
2018-Mar-20 04:29N 28°09' W 015°26'0 0.0
2018-Mar-20 03:58N 28°09' W 015°26'0 0.0
2018-Mar-20 03:30N 28°09' W 015°26'0 0.0
2018-Mar-20 03:00N 28°09' W 015°26'0 0.0
2018-Mar-20 02:30N 28°09' W 015°26'0 0.0
2018-Mar-20 02:00N 28°09' W 015°26'0 0.0
2018-Mar-20 01:27N 28°09' W 015°26'0 0.0
2018-Mar-20 00:58N 28°09' W 015°26'0 0.0
2018-Mar-20 00:30N 28°09' W 015°26'0 0.0
2018-Mar-20 00:00N 28°09' W 015°26'0 0.0
2018-Mar-19 23:30N 28°09' W 015°26'0 0.0
2018-Mar-19 23:00N 28°09' W 015°26'0 0.0
2018-Mar-19 22:30N 28°09' W 015°26'0 0.0
2018-Mar-19 22:00N 28°09' W 015°26'0 0.0
2018-Mar-19 21:30N 28°09' W 015°26'0 0.0
2018-Mar-19 20:59N 28°09' W 015°26'0 0.0
2018-Mar-19 20:30N 28°09' W 015°26'0 0.0
2018-Mar-19 20:00N 28°09' W 015°26'0 0.0
2018-Mar-19 19:30N 28°09' W 015°26'0 0.0
2018-Mar-19 19:00N 28°09' W 015°26'0 0.0
2018-Mar-19 18:30N 28°09' W 015°26'0 0.0
2018-Mar-19 17:56N 28°09' W 015°26'0 0.0
2018-Mar-19 17:15N 28°09' W 015°26'0 0.0
2018-Mar-19 17:00N 28°09' W 015°26'0 0.0
2018-Mar-19 16:30N 28°09' W 015°26'0 0.0
2018-Mar-19 16:00N 28°09' W 015°26'0 0.0
2018-Mar-19 15:30N 28°09' W 015°26'0 0.0
2018-Mar-19 15:00N 28°09' W 015°26'0 0.0
2018-Mar-19 14:30N 28°09' W 015°26'  

Dump ship's entire track history